Time;durP1;ratioP1;P1;durP2;ratioP2;P2;SDS_P1;SDS_P2;PMS_P1;PMS_P2;Temp;Humidity;BMP_temperature;BMP_pressure;BME280_temperature;BME280_humidity;BME280_pressure;Samples;Min_cycle;Max_cycle;Signal;HPM_P1;HPM_P2
2023/09/17 00:00:15;;;;;;;19.75;16.33;;;;;;;;;;4999425;28;25068;-77
2023/09/17 00:02:41;;;;;;;21.90;15.48;;;;;;;;;;5005472;28;25060;-74
2023/09/17 00:05:08;;;;;;;20.50;16.20;;;;;;;;;;5001645;28;25146;-75
2023/09/17 00:07:35;;;;;;;25.30;15.70;;;;;;;;;;4993010;28;25092;-76
2023/09/17 00:10:01;;;;;;;18.75;14.35;;;;;;;;;;4993919;28;25077;-75
2023/09/17 00:12:27;;;;;;;16.70;13.65;;;;;;;;;;4987887;28;25001;-73
2023/09/17 00:14:53;;;;;;;20.80;14.32;;;;;;;;;;4996547;28;25058;-75
2023/09/17 00:17:19;;;;;;;17.73;13.90;;;;;;;;;;4991973;28;25091;-76
2023/09/17 00:19:45;;;;;;;18.65;13.73;;;;;;;;;;4994175;28;25080;-76
2023/09/17 00:22:14;;;;;;;18.17;14.23;;;;;;;;;;4992205;28;25121;-75
2023/09/17 00:24:40;;;;;;;19.55;13.68;;;;;;;;;;4993924;28;25079;-75
2023/09/17 00:27:06;;;;;;;17.27;13.48;;;;;;;;;;4992085;28;25080;-74
2023/09/17 00:29:32;;;;;;;15.20;13.15;;;;;;;;;;4993933;28;25076;-74
2023/09/17 00:31:58;;;;;;;17.40;13.48;;;;;;;;;;4993516;28;25070;-73
2023/09/17 00:34:25;;;;;;;16.73;12.77;;;;;;;;;;4991745;28;25082;-76
2023/09/17 00:36:51;;;;;;;18.75;14.50;;;;;;;;;;4989722;28;25060;-72
2023/09/17 00:39:18;;;;;;;18.48;13.63;;;;;;;;;;4993014;28;25072;-74
2023/09/17 00:41:44;;;;;;;18.80;13.68;;;;;;;;;;4997879;28;25075;-76
2023/09/17 00:44:10;;;;;;;19.48;13.05;;;;;;;;;;4993188;28;25081;-75
2023/09/17 00:46:37;;;;;;;16.73;13.43;;;;;;;;;;4993081;28;25055;-74
2023/09/17 00:49:04;;;;;;;16.85;13.40;;;;;;;;;;4994901;28;25116;-74
2023/09/17 00:51:30;;;;;;;21.98;13.15;;;;;;;;;;4997676;28;25078;-75
2023/09/17 00:53:56;;;;;;;15.65;13.30;;;;;;;;;;4998894;28;25139;-78
2023/09/17 00:56:24;;;;;;;17.52;12.98;;;;;;;;;;4996363;28;25074;-77
2023/09/17 00:58:50;;;;;;;14.73;12.80;;;;;;;;;;4997760;28;25128;-76
2023/09/17 01:01:19;;;;;;;17.13;13.98;;;;;;;;;;4997178;28;25088;-75
2023/09/17 01:03:45;;;;;;;20.30;13.82;;;;;;;;;;4989411;28;25120;-75
2023/09/17 01:06:12;;;;;;;15.32;13.02;;;;;;;;;;4989309;28;25081;-74
2023/09/17 01:08:40;;;;;;;20.90;13.70;;;;;;;;;;4991541;28;25115;-77
2023/09/17 01:11:09;;;;;;;17.10;13.45;;;;;;;;;;4991667;28;25060;-76
2023/09/17 01:13:40;;;;;;;20.85;13.25;;;;;;;;;;4987186;28;25053;-76
2023/09/17 01:16:06;;;;;;;18.92;14.75;;;;;;;;;;4999466;28;25095;-75
2023/09/17 01:18:33;;;;;;;17.60;14.30;;;;;;;;;;4997492;28;25080;-75
2023/09/17 01:21:04;;;;;;;19.65;15.10;;;;;;;;;;4993831;28;25063;-76
2023/09/17 01:23:46;;;;;;;17.83;14.90;;;;;;;;;;4997360;28;25041;-74
2023/09/17 01:26:39;;;;;;;18.95;14.65;;;;;;;;;;4992619;28;25062;-74
2023/09/17 01:29:05;;;;;;;23.58;15.32;;;;;;;;;;4994415;28;25074;-73
2023/09/17 01:31:34;;;;;;;20.60;15.48;;;;;;;;;;4989753;28;25071;-76
2023/09/17 01:34:00;;;;;;;17.10;13.50;;;;;;;;;;5000402;28;25061;-76
2023/09/17 01:36:34;;;;;;;16.83;13.82;;;;;;;;;;4995736;28;25132;-77
2023/09/17 01:39:04;;;;;;;19.45;15.27;;;;;;;;;;4997963;28;25087;-75
2023/09/17 01:41:31;;;;;;;22.55;14.75;;;;;;;;;;4996793;28;25129;-75
2023/09/17 01:43:57;;;;;;;20.63;15.55;;;;;;;;;;4996293;28;25135;-75
2023/09/17 01:46:25;;;;;;;21.10;15.68;;;;;;;;;;4993896;28;25099;-75
2023/09/17 01:48:51;;;;;;;23.90;15.98;;;;;;;;;;5003280;28;25139;-74
2023/09/17 01:51:17;;;;;;;20.35;15.35;;;;;;;;;;5005836;28;25063;-72
2023/09/17 01:53:43;;;;;;;19.65;15.38;;;;;;;;;;5004408;28;25042;-76
2023/09/17 01:56:12;;;;;;;19.20;15.35;;;;;;;;;;4993637;28;25072;-74
2023/09/17 01:58:38;;;;;;;21.38;15.85;;;;;;;;;;4992335;28;25075;-74
2023/09/17 02:01:04;;;;;;;19.08;15.43;;;;;;;;;;4992448;28;25075;-76
2023/09/17 02:03:30;;;;;;;21.08;16.40;;;;;;;;;;5000441;28;25153;-77
2023/09/17 02:05:57;;;;;;;21.00;15.85;;;;;;;;;;4991707;28;25071;-75
2023/09/17 02:08:23;;;;;;;19.45;14.93;;;;;;;;;;5000866;28;25049;-75
2023/09/17 02:10:49;;;;;;;21.50;17.05;;;;;;;;;;5004543;28;25163;-75
2023/09/17 02:13:15;;;;;;;22.88;16.90;;;;;;;;;;4993132;28;25151;-75
2023/09/17 02:15:40;;;;;;;22.23;17.02;;;;;;;;;;4991880;28;25064;-74
2023/09/17 02:18:06;;;;;;;24.63;17.42;;;;;;;;;;4990622;28;25063;-73
2023/09/17 02:20:33;;;;;;;21.15;16.90;;;;;;;;;;4990824;28;25053;-76
2023/09/17 02:23:00;;;;;;;20.23;15.57;;;;;;;;;;4991906;28;25140;-74
2023/09/17 02:25:26;;;;;;;20.25;15.68;;;;;;;;;;4997296;28;25047;-74
2023/09/17 02:27:52;;;;;;;23.05;17.67;;;;;;;;;;4992397;28;25069;-74
2023/09/17 02:30:18;;;;;;;19.55;16.88;;;;;;;;;;4992499;28;25114;-75
2023/09/17 02:32:44;;;;;;;22.38;16.27;;;;;;;;;;4994048;28;25057;-72
2023/09/17 02:35:10;;;;;;;21.38;17.17;;;;;;;;;;4993721;28;25055;-76
2023/09/17 02:37:36;;;;;;;21.02;17.00;;;;;;;;;;4992997;28;25064;-76
2023/09/17 02:40:04;;;;;;;23.67;17.95;;;;;;;;;;4996124;28;25071;-76
2023/09/17 02:42:30;;;;;;;22.85;18.10;;;;;;;;;;4990959;28;25086;-75
2023/09/17 02:44:56;;;;;;;20.30;17.00;;;;;;;;;;4994228;28;25072;-79
2023/09/17 02:47:22;;;;;;;21.17;17.40;;;;;;;;;;4992808;28;25078;-75
2023/09/17 02:49:48;;;;;;;22.70;17.17;;;;;;;;;;4993111;28;25127;-76
2023/09/17 02:52:14;;;;;;;21.08;17.65;;;;;;;;;;4994917;28;25088;-76
2023/09/17 02:54:40;;;;;;;24.25;17.70;;;;;;;;;;5000902;28;25136;-75
2023/09/17 02:57:07;;;;;;;25.05;17.60;;;;;;;;;;4992773;28;25152;-75
2023/09/17 02:59:34;;;;;;;22.50;18.02;;;;;;;;;;4993326;28;25051;-77
2023/09/17 03:02:00;;;;;;;24.75;17.95;;;;;;;;;;4995737;28;25120;-75
2023/09/17 03:04:28;;;;;;;21.15;18.02;;;;;;;;;;4999924;28;25248;-79
2023/09/17 03:06:54;;;;;;;24.98;16.83;;;;;;;;;;4993426;28;25087;-76
2023/09/17 03:09:20;;;;;;;21.38;17.75;;;;;;;;;;4998923;28;25087;-76
2023/09/17 03:11:49;;;;;;;22.25;18.30;;;;;;;;;;5000760;28;25068;-74
2023/09/17 03:14:15;;;;;;;25.98;19.13;;;;;;;;;;5001583;28;25059;-75
2023/09/17 03:16:41;;;;;;;23.63;19.58;;;;;;;;;;4995795;28;25134;-76
2023/09/17 03:19:07;;;;;;;20.20;17.05;;;;;;;;;;4987509;28;25078;-72
2023/09/17 03:21:40;;;;;;;28.15;19.27;;;;;;;;;;5005473;28;25052;-75
2023/09/17 03:24:06;;;;;;;29.52;20.42;;;;;;;;;;5003074;28;25050;-77
2023/09/17 03:26:32;;;;;;;25.60;19.83;;;;;;;;;;4997605;28;25155;-74
2023/09/17 03:28:58;;;;;;;24.08;19.48;;;;;;;;;;4997055;28;25065;-77
2023/09/17 03:31:24;;;;;;;23.92;19.77;;;;;;;;;;4995896;28;25062;-75
2023/09/17 03:33:50;;;;;;;24.90;17.90;;;;;;;;;;5007140;28;25088;-74
2023/09/17 03:36:16;;;;;;;27.77;18.40;;;;;;;;;;4996280;28;25170;-75
2023/09/17 03:38:42;;;;;;;20.95;18.60;;;;;;;;;;4996044;28;25126;-76
2023/09/17 03:41:08;;;;;;;23.90;17.88;;;;;;;;;;4998456;28;25055;-75
2023/09/17 03:43:35;;;;;;;23.42;18.38;;;;;;;;;;4995110;28;25068;-72
2023/09/17 03:46:04;;;;;;;23.77;18.70;;;;;;;;;;4998400;28;25098;-73
2023/09/17 03:48:30;;;;;;;21.13;17.95;;;;;;;;;;5001252;28;25060;-75
2023/09/17 03:50:56;;;;;;;23.75;18.45;;;;;;;;;;4997083;28;25151;-76
2023/09/17 03:53:22;;;;;;;22.58;18.35;;;;;;;;;;4997510;28;25076;-76
2023/09/17 03:55:51;;;;;;;26.33;18.98;;;;;;;;;;4999062;28;25057;-76
2023/09/17 03:58:17;;;;;;;25.80;19.05;;;;;;;;;;4996540;28;25057;-76
2023/09/17 04:00:44;;;;;;;22.25;17.52;;;;;;;;;;4993991;28;25147;-73
2023/09/17 04:03:12;;;;;;;24.27;17.90;;;;;;;;;;4999646;28;25094;-75
2023/09/17 04:05:38;;;;;;;22.73;16.83;;;;;;;;;;4993836;28;25079;-75
2023/09/17 04:08:04;;;;;;;22.92;16.60;;;;;;;;;;5001934;28;25154;-76
2023/09/17 04:10:30;;;;;;;24.73;17.75;;;;;;;;;;5004070;28;25066;-76
2023/09/17 04:12:56;;;;;;;25.23;16.33;;;;;;;;;;5006799;28;25076;-76
2023/09/17 04:15:22;;;;;;;24.83;17.75;;;;;;;;;;5017715;28;25102;-76
2023/09/17 04:17:51;;;;;;;21.08;17.02;;;;;;;;;;5004447;28;25071;-76
2023/09/17 04:20:18;;;;;;;24.85;17.05;;;;;;;;;;5019754;28;25064;-76
2023/09/17 04:22:46;;;;;;;21.80;15.90;;;;;;;;;;5016139;28;25077;-77
2023/09/17 04:25:13;;;;;;;22.13;16.38;;;;;;;;;;5012189;28;25072;-77
2023/09/17 04:27:43;;;;;;;21.00;16.10;;;;;;;;;;5005810;28;25061;-74
2023/09/17 04:30:10;;;;;;;20.83;15.93;;;;;;;;;;5004050;28;25053;-76
2023/09/17 04:32:37;;;;;;;21.30;16.35;;;;;;;;;;5000966;28;25068;-77
2023/09/17 04:35:08;;;;;;;18.52;15.32;;;;;;;;;;5005659;28;25093;-77
2023/09/17 04:37:35;;;;;;;21.45;16.52;;;;;;;;;;4999828;28;25068;-73
2023/09/17 04:40:01;;;;;;;25.70;17.48;;;;;;;;;;4999698;28;25073;-76
2023/09/17 04:42:27;;;;;;;27.25;18.85;;;;;;;;;;4996720;28;25163;-73
2023/09/17 04:44:53;;;;;;;22.77;17.35;;;;;;;;;;4998425;28;25073;-76
2023/09/17 04:47:19;;;;;;;21.23;16.90;;;;;;;;;;4995914;28;25151;-75
2023/09/17 04:49:45;;;;;;;23.52;18.10;;;;;;;;;;4999524;28;25052;-75
2023/09/17 04:52:11;;;;;;;21.25;16.92;;;;;;;;;;4995715;28;25156;-76
2023/09/17 04:54:38;;;;;;;20.58;15.80;;;;;;;;;;5000168;28;25129;-75
2023/09/17 04:57:05;;;;;;;21.20;17.40;;;;;;;;;;4998053;28;25068;-74
2023/09/17 04:59:31;;;;;;;24.67;18.70;;;;;;;;;;4998560;28;25093;-75
2023/09/17 05:01:57;;;;;;;22.58;18.67;;;;;;;;;;4987017;28;25070;-76
2023/09/17 05:04:26;;;;;;;26.85;19.10;;;;;;;;;;4975679;28;25075;-75
2023/09/17 05:06:52;;;;;;;23.02;18.88;;;;;;;;;;4970872;28;25067;-74
2023/09/17 05:09:18;;;;;;;25.65;18.38;;;;;;;;;;4976194;28;25085;-76
2023/09/17 05:11:44;;;;;;;25.90;18.23;;;;;;;;;;4973699;28;25084;-76
2023/09/17 05:14:10;;;;;;;25.08;19.73;;;;;;;;;;4976869;28;25057;-75
2023/09/17 05:16:38;;;;;;;24.52;19.95;;;;;;;;;;4976355;28;25066;-74
2023/09/17 05:19:04;;;;;;;20.20;17.17;;;;;;;;;;4986804;28;25074;-73
2023/09/17 05:21:30;;;;;;;23.73;19.52;;;;;;;;;;4983781;28;25077;-75
2023/09/17 05:23:56;;;;;;;27.05;20.38;;;;;;;;;;4976186;28;25055;-77
2023/09/17 05:26:22;;;;;;;25.42;19.98;;;;;;;;;;4975484;28;25093;-77
2023/09/17 05:28:49;;;;;;;28.48;20.58;;;;;;;;;;4988359;28;25065;-77
2023/09/17 05:31:15;;;;;;;27.80;20.35;;;;;;;;;;4988966;28;25055;-76
2023/09/17 05:33:41;;;;;;;27.33;20.65;;;;;;;;;;4983950;28;25079;-72
2023/09/17 05:36:07;;;;;;;24.02;18.98;;;;;;;;;;4983790;28;25095;-77
2023/09/17 05:38:38;;;;;;;23.92;18.90;;;;;;;;;;5082610;27;1228066;-65
2023/09/17 05:41:04;;;;;;;23.02;18.30;;;;;;;;;;5101401;27;25070;-70
2023/09/17 05:43:30;;;;;;;24.70;18.70;;;;;;;;;;5083559;28;25090;-65
2023/09/17 05:45:56;;;;;;;23.90;19.23;;;;;;;;;;5081620;28;25088;-65
2023/09/17 05:48:25;;;;;;;24.10;19.45;;;;;;;;;;5078919;28;25059;-66
2023/09/17 05:50:54;;;;;;;26.52;19.63;;;;;;;;;;5090078;28;25070;-66
2023/09/17 05:53:20;;;;;;;27.77;20.30;;;;;;;;;;5101507;28;25057;-66
2023/09/17 05:55:46;;;;;;;26.05;21.08;;;;;;;;;;5087549;28;25064;-65
2023/09/17 05:58:12;;;;;;;25.85;19.52;;;;;;;;;;5082032;28;25142;-66
2023/09/17 06:00:38;;;;;;;25.90;18.75;;;;;;;;;;5082852;28;25067;-64
2023/09/17 06:03:05;;;;;;;23.88;18.02;;;;;;;;;;5086513;28;25065;-65
2023/09/17 06:05:31;;;;;;;25.00;18.02;;;;;;;;;;5081286;28;25074;-66
2023/09/17 06:07:57;;;;;;;21.70;17.90;;;;;;;;;;5088953;28;25163;-68
2023/09/17 06:10:23;;;;;;;22.88;18.02;;;;;;;;;;5081937;28;25040;-64
2023/09/17 06:12:49;;;;;;;25.33;19.73;;;;;;;;;;5083201;28;25074;-66
2023/09/17 06:15:14;;;;;;;25.70;19.70;;;;;;;;;;5084365;28;25052;-68
2023/09/17 06:17:41;;;;;;;25.85;19.45;;;;;;;;;;5085316;28;25082;-66
2023/09/17 06:20:10;;;;;;;25.65;20.63;;;;;;;;;;5080071;28;25167;-67
2023/09/17 06:22:36;;;;;;;26.60;21.65;;;;;;;;;;5080415;28;25081;-69
2023/09/17 06:25:03;;;;;;;31.38;21.77;;;;;;;;;;5085688;28;25055;-68
2023/09/17 06:27:30;;;;;;;32.10;22.30;;;;;;;;;;5078652;28;25080;-69
2023/09/17 06:29:56;;;;;;;32.75;24.27;;;;;;;;;;5082383;28;25146;-68
2023/09/17 06:32:22;;;;;;;33.85;22.67;;;;;;;;;;5078198;28;25072;-67
2023/09/17 06:34:48;;;;;;;32.58;23.50;;;;;;;;;;5086160;28;25052;-70
2023/09/17 06:37:14;;;;;;;36.45;24.73;;;;;;;;;;5082378;27;25075;-69
2023/09/17 06:39:40;;;;;;;36.42;25.25;;;;;;;;;;5085553;28;25068;-67
2023/09/17 06:42:06;;;;;;;40.80;28.38;;;;;;;;;;5083550;28;25156;-69
2023/09/17 06:44:32;;;;;;;40.75;27.77;;;;;;;;;;5083471;28;25095;-69
2023/09/17 06:46:58;;;;;;;35.33;25.60;;;;;;;;;;5079410;28;25079;-70
2023/09/17 06:49:23;;;;;;;38.65;28.58;;;;;;;;;;5072943;28;25061;-67
2023/09/17 06:51:52;;;;;;;42.25;27.33;;;;;;;;;;5067904;28;25060;-66
2023/09/17 06:54:18;;;;;;;41.92;28.70;;;;;;;;;;5063629;28;25067;-70
2023/09/17 06:56:44;;;;;;;37.22;27.67;;;;;;;;;;5059753;28;25076;-68
2023/09/17 06:59:10;;;;;;;40.30;28.35;;;;;;;;;;5072484;28;25061;-68
2023/09/17 07:01:36;;;;;;;41.63;29.00;;;;;;;;;;5063751;28;25077;-68
2023/09/17 07:04:02;;;;;;;44.30;29.25;;;;;;;;;;5063304;28;25060;-68
2023/09/17 07:06:28;;;;;;;42.92;29.13;;;;;;;;;;5069032;28;25139;-69
2023/09/17 07:08:55;;;;;;;49.47;30.65;;;;;;;;;;5071650;28;25055;-69
2023/09/17 07:11:21;;;;;;;46.40;30.70;;;;;;;;;;5060163;28;25062;-68
2023/09/17 07:13:47;;;;;;;44.70;30.23;;;;;;;;;;5067653;28;25098;-67
2023/09/17 07:16:14;;;;;;;43.58;29.10;;;;;;;;;;5058271;28;25186;-69
2023/09/17 07:18:40;;;;;;;46.00;29.05;;;;;;;;;;5070921;28;25151;-68
2023/09/17 07:21:05;;;;;;;44.60;28.08;;;;;;;;;;5069338;28;25111;-67
2023/09/17 07:23:32;;;;;;;47.88;31.23;;;;;;;;;;5069741;28;25136;-68
2023/09/17 07:26:03;;;;;;;42.05;29.05;;;;;;;;;;5065084;28;25087;-68
2023/09/17 07:28:29;;;;;;;39.20;27.45;;;;;;;;;;5059498;28;25051;-67
2023/09/17 07:30:55;;;;;;;54.95;31.30;;;;;;;;;;5071643;28;25072;-69
2023/09/17 07:33:21;;;;;;;44.97;29.80;;;;;;;;;;5059801;28;25135;-69
2023/09/17 07:35:48;;;;;;;47.53;30.73;;;;;;;;;;5063744;28;25050;-68
2023/09/17 07:38:13;;;;;;;46.95;29.27;;;;;;;;;;5066311;28;25130;-69
2023/09/17 07:40:39;;;;;;;44.58;30.55;;;;;;;;;;5077511;28;25065;-68
2023/09/17 07:43:06;;;;;;;44.78;30.50;;;;;;;;;;5066364;28;25148;-68
2023/09/17 07:45:33;;;;;;;43.63;29.77;;;;;;;;;;5069613;28;25064;-66
2023/09/17 07:48:00;;;;;;;48.78;32.15;;;;;;;;;;5066471;28;25161;-68
2023/09/17 07:50:26;;;;;;;46.50;30.17;;;;;;;;;;5069848;28;25085;-70
2023/09/17 07:52:52;;;;;;;45.15;28.27;;;;;;;;;;5064571;28;25095;-66
2023/09/17 07:55:18;;;;;;;45.53;30.38;;;;;;;;;;5066080;28;25127;-68
2023/09/17 07:57:46;;;;;;;44.47;28.98;;;;;;;;;;5072516;28;25068;-66
2023/09/17 08:00:15;;;;;;;47.38;30.15;;;;;;;;;;5067788;28;25054;-69
2023/09/17 08:02:41;;;;;;;44.97;29.45;;;;;;;;;;5062052;28;25072;-71
2023/09/17 08:05:07;;;;;;;43.00;29.08;;;;;;;;;;5069288;28;25046;-67
2023/09/17 08:07:33;;;;;;;41.13;27.50;;;;;;;;;;5065386;28;25056;-69
2023/09/17 08:09:59;;;;;;;43.17;29.35;;;;;;;;;;5068143;28;25052;-67
2023/09/17 08:12:25;;;;;;;47.22;28.70;;;;;;;;;;5069516;28;25069;-68
2023/09/17 08:14:52;;;;;;;47.00;29.65;;;;;;;;;;5068023;28;25067;-66
2023/09/17 08:17:18;;;;;;;34.78;25.80;;;;;;;;;;5065655;28;25071;-68
2023/09/17 08:19:45;;;;;;;47.63;30.83;;;;;;;;;;5069868;28;25072;-66
2023/09/17 08:22:11;;;;;;;49.35;31.20;;;;;;;;;;5066648;28;25050;-66
2023/09/17 08:24:37;;;;;;;49.35;32.50;;;;;;;;;;5066174;28;24678;-65
2023/09/17 08:27:04;;;;;;;47.72;30.50;;;;;;;;;;5069302;28;25096;-67
2023/09/17 08:29:30;;;;;;;44.00;28.13;;;;;;;;;;5069243;28;25151;-66
2023/09/17 08:31:56;;;;;;;44.05;29.98;;;;;;;;;;5068067;28;25144;-68
2023/09/17 08:34:22;;;;;;;40.08;27.30;;;;;;;;;;5070132;28;25082;-65
2023/09/17 08:36:48;;;;;;;42.20;28.27;;;;;;;;;;5075105;28;25172;-68
2023/09/17 08:39:14;;;;;;;37.78;26.90;;;;;;;;;;5077078;28;25139;-67
2023/09/17 08:41:40;;;;;;;39.15;26.67;;;;;;;;;;5076136;28;25097;-66
2023/09/17 08:44:08;;;;;;;42.83;28.65;;;;;;;;;;5085284;28;25118;-68
2023/09/17 08:46:35;;;;;;;39.65;27.90;;;;;;;;;;5084109;28;25075;-70
2023/09/17 08:49:01;;;;;;;39.40;27.98;;;;;;;;;;5083708;28;25072;-67
2023/09/17 08:51:30;;;;;;;41.22;28.52;;;;;;;;;;5075393;28;25086;-66
2023/09/17 08:54:02;;;;;;;38.20;25.73;;;;;;;;;;5066107;22;25110;-74
2023/09/17 08:56:28;;;;;;;;;;;;;;;;;;5043458;28;25161;-70
2023/09/17 08:58:59;;;;;;;37.63;25.95;;;;;;;;;;5060789;28;25050;-72
2023/09/17 09:01:25;;;;;;;40.60;27.60;;;;;;;;;;5039977;28;25072;-74
2023/09/17 09:03:54;;;;;;;36.35;24.85;;;;;;;;;;5042489;28;25062;-73
2023/09/17 09:06:21;;;;;;;35.72;24.08;;;;;;;;;;5062974;28;25063;-72
2023/09/17 09:08:48;;;;;;;36.67;25.05;;;;;;;;;;5055513;28;25066;-76
2023/09/17 09:11:14;;;;;;;38.88;25.30;;;;;;;;;;5060790;28;25070;-71
2023/09/17 09:13:41;;;;;;;37.10;25.08;;;;;;;;;;5058233;28;25079;-75
2023/09/17 09:16:08;;;;;;;34.88;24.95;;;;;;;;;;5061013;28;25086;-72
2023/09/17 09:18:35;;;;;;;32.13;24.17;;;;;;;;;;5062543;28;25118;-72
2023/09/17 09:21:01;;;;;;;33.15;23.77;;;;;;;;;;5061604;28;25055;-72
2023/09/17 09:23:27;;;;;;;34.00;25.38;;;;;;;;;;5060190;28;25073;-71
2023/09/17 09:25:53;;;;;;;34.58;23.42;;;;;;;;;;5059747;28;25053;-71
2023/09/17 09:28:19;;;;;;;34.03;25.85;;;;;;;;;;5040667;28;25162;-71
2023/09/17 09:30:45;;;;;;;34.78;25.25;;;;;;;;;;5065493;28;25099;-72
2023/09/17 09:33:12;;;;;;;41.17;26.85;;;;;;;;;;5059453;28;25059;-70
2023/09/17 09:35:38;;;;;;;35.08;26.55;;;;;;;;;;5067456;28;25054;-70
2023/09/17 09:38:04;;;;;;;41.63;26.13;;;;;;;;;;5062749;28;25152;-70
2023/09/17 09:40:34;;;;;;;37.63;25.98;;;;;;;;;;5055279;28;25068;-72
2023/09/17 09:43:00;;;;;;;40.25;27.60;;;;;;;;;;5060914;28;25104;-70
2023/09/17 09:45:28;;;;;;;38.92;27.23;;;;;;;;;;5064065;28;25092;-73
2023/09/17 09:47:54;;;;;;;33.85;24.15;;;;;;;;;;5065565;28;25064;-73
2023/09/17 09:50:27;;;;;;;39.10;26.45;;;;;;;;;;5063134;28;25067;-70
2023/09/17 09:52:53;;;;;;;39.88;28.10;;;;;;;;;;5052332;28;25060;-73
2023/09/17 09:55:23;;;;;;;39.63;27.55;;;;;;;;;;5059418;28;25044;-72
2023/09/17 09:57:50;;;;;;;39.83;29.35;;;;;;;;;;5056087;28;25072;-73
2023/09/17 10:00:16;;;;;;;43.97;28.63;;;;;;;;;;5061957;28;25081;-72
2023/09/17 10:02:43;;;;;;;38.58;27.48;;;;;;;;;;5065486;28;25057;-73
2023/09/17 10:05:16;;;;;;;38.22;27.05;;;;;;;;;;5061524;28;25058;-75
2023/09/17 10:07:42;;;;;;;35.78;27.90;;;;;;;;;;5039832;28;25140;-72
2023/09/17 10:10:11;;;;;;;40.38;26.60;;;;;;;;;;5061442;28;25193;-73
2023/09/17 10:12:37;;;;;;;41.63;30.30;;;;;;;;;;5059170;28;25077;-75
2023/09/17 10:15:04;;;;;;;36.92;27.40;;;;;;;;;;5055949;28;25108;-72
2023/09/17 10:17:31;;;;;;;42.45;29.75;;;;;;;;;;5059530;28;25044;-75
2023/09/17 10:19:59;;;;;;;40.58;28.27;;;;;;;;;;5069175;28;25065;-74
2023/09/17 10:22:27;;;;;;;42.53;30.75;;;;;;;;;;5058685;28;25076;-74
2023/09/17 10:24:54;;;;;;;43.13;29.33;;;;;;;;;;5084890;28;25081;-74
2023/09/17 10:27:21;;;;;;;41.42;29.67;;;;;;;;;;5084359;28;25092;-71
2023/09/17 10:29:50;;;;;;;53.78;32.38;;;;;;;;;;5089076;28;25056;-72
2023/09/17 10:32:18;;;;;;;48.97;33.30;;;;;;;;;;5070103;28;25078;-72
2023/09/17 10:34:45;;;;;;;50.75;33.95;;;;;;;;;;5071968;28;25188;-75
2023/09/17 10:37:13;;;;;;;54.25;35.05;;;;;;;;;;5070674;28;25133;-75
2023/09/17 10:39:39;;;;;;;51.97;34.70;;;;;;;;;;5062369;28;25079;-73
2023/09/17 10:42:06;;;;;;;46.22;33.80;;;;;;;;;;5066461;28;25073;-72
2023/09/17 10:44:36;;;;;;;49.60;34.38;;;;;;;;;;5071256;28;25059;-74
2023/09/17 10:47:04;;;;;;;56.30;34.33;;;;;;;;;;5066709;28;25063;-72
2023/09/17 10:49:31;;;;;;;51.95;32.55;;;;;;;;;;5053261;28;25080;-73
2023/09/17 10:51:58;;;;;;;47.45;33.45;;;;;;;;;;5075324;28;25072;-73
2023/09/17 10:54:23;;;;;;;52.03;33.67;;;;;;;;;;5074448;28;25110;-70
2023/09/17 10:56:50;;;;;;;51.75;31.23;;;;;;;;;;5063606;28;25132;-71
2023/09/17 10:59:17;;;;;;;43.15;29.80;;;;;;;;;;5063207;28;25063;-71
2023/09/17 11:01:44;;;;;;;42.88;27.33;;;;;;;;;;5069495;28;25077;-71
2023/09/17 11:04:13;;;;;;;46.28;32.25;;;;;;;;;;5050661;28;25076;-69
2023/09/17 11:06:40;;;;;;;50.95;31.98;;;;;;;;;;5062325;28;25087;-76
2023/09/17 11:09:06;;;;;;;52.47;31.48;;;;;;;;;;5050679;28;25074;-71
2023/09/17 11:11:34;;;;;;;49.25;32.33;;;;;;;;;;5070798;28;25078;-73
2023/09/17 11:14:02;;;;;;;49.78;32.45;;;;;;;;;;5068785;28;25067;-74
2023/09/17 11:16:30;;;;;;;49.10;32.40;;;;;;;;;;5064692;28;25064;-74
2023/09/17 11:19:08;;;;;;;48.25;32.30;;;;;;;;;;5065264;28;25046;-74
2023/09/17 11:21:38;;;;;;;48.92;31.85;;;;;;;;;;5052727;28;25100;-76
2023/09/17 11:24:05;;;;;;;50.83;31.15;;;;;;;;;;5065860;28;25074;-75
2023/09/17 11:26:35;;;;;;;47.42;31.52;;;;;;;;;;5063996;28;25107;-73
2023/09/17 11:29:03;;;;;;;52.10;33.25;;;;;;;;;;5063358;28;25168;-74
2023/09/17 11:31:32;;;;;;;46.30;30.95;;;;;;;;;;5054648;28;25083;-74
2023/09/17 11:33:59;;;;;;;44.92;29.23;;;;;;;;;;5061130;28;25063;-78
2023/09/17 11:36:26;;;;;;;47.17;31.17;;;;;;;;;;5062369;28;25072;-75
2023/09/17 11:38:52;;;;;;;46.83;28.65;;;;;;;;;;5074518;28;25139;-71
2023/09/17 11:41:26;;;;;;;46.70;27.92;;;;;;;;;;5046462;28;25053;-73
2023/09/17 11:43:52;;;;;;;52.60;30.60;;;;;;;;;;5061071;28;25073;-73
2023/09/17 11:46:18;;;;;;;48.95;29.70;;;;;;;;;;5054520;28;25095;-72
2023/09/17 11:48:45;;;;;;;44.80;28.33;;;;;;;;;;5065713;28;25106;-73
2023/09/17 11:51:20;;;;;;;45.90;26.70;;;;;;;;;;5059430;28;25105;-72
2023/09/17 11:53:58;;;;;;;44.83;25.33;;;;;;;;;;5069011;28;25067;-71
2023/09/17 11:56:25;;;;;;;46.95;26.13;;;;;;;;;;5062230;28;25066;-72
2023/09/17 11:59:05;;;;;;;46.28;25.13;;;;;;;;;;5047765;28;25057;-73
2023/09/17 12:01:54;;;;;;;44.58;27.48;;;;;;;;;;5045813;28;25117;-76
2023/09/17 12:04:23;;;;;;;46.63;26.25;;;;;;;;;;5034288;28;25058;-72
2023/09/17 12:06:50;;;;;;;44.22;26.42;;;;;;;;;;5062625;28;25068;-70
2023/09/17 12:09:23;;;;;;;40.88;25.35;;;;;;;;;;5061878;28;25099;-72
2023/09/17 12:11:50;;;;;;;46.13;27.90;;;;;;;;;;5042222;28;25071;-72
2023/09/17 12:14:19;;;;;;;42.88;26.48;;;;;;;;;;5062457;28;25124;-74
2023/09/17 12:16:47;;;;;;;48.50;25.63;;;;;;;;;;5059550;28;25064;-73
2023/09/17 12:19:13;;;;;;;42.75;26.80;;;;;;;;;;5063473;28;25059;-76
2023/09/17 12:21:39;;;;;;;39.58;25.00;;;;;;;;;;5064521;28;25132;-72
2023/09/17 12:24:08;;;;;;;46.55;26.48;;;;;;;;;;5065741;28;25074;-71
2023/09/17 12:26:57;;;;;;;43.88;26.05;;;;;;;;;;5059362;28;25140;-76
2023/09/17 12:29:23;;;;;;;48.38;28.67;;;;;;;;;;5064353;28;25088;-76
2023/09/17 12:31:49;;;;;;;43.15;26.42;;;;;;;;;;5064757;28;25049;-77
2023/09/17 12:34:16;;;;;;;49.72;27.13;;;;;;;;;;5072086;28;25079;-76
2023/09/17 12:36:43;;;;;;;46.75;28.90;;;;;;;;;;5064904;28;25076;-75
2023/09/17 12:39:09;;;;;;;54.53;28.33;;;;;;;;;;5080592;28;25077;-75
2023/09/17 12:41:35;;;;;;;50.17;30.98;;;;;;;;;;5069917;28;25117;-74
2023/09/17 12:44:01;;;;;;;45.58;28.25;;;;;;;;;;5068277;28;25138;-74
2023/09/17 12:46:27;;;;;;;54.83;30.38;;;;;;;;;;5047953;28;25057;-73
2023/09/17 12:48:53;;;;;;;46.17;28.10;;;;;;;;;;5066470;28;25144;-74
2023/09/17 12:51:19;;;;;;;50.30;29.73;;;;;;;;;;5063701;28;25060;-73
2023/09/17 12:53:45;;;;;;;51.17;30.40;;;;;;;;;;5067231;28;25063;-74
2023/09/17 12:56:12;;;;;;;49.05;28.13;;;;;;;;;;5064785;28;25046;-73
2023/09/17 12:58:38;;;;;;;49.15;30.20;;;;;;;;;;5062528;28;25078;-73
2023/09/17 13:01:10;;;;;;;41.13;26.45;;;;;;;;;;5043774;28;25056;-74
2023/09/17 13:03:36;;;;;;;47.90;28.42;;;;;;;;;;5060204;28;25028;-72
2023/09/17 13:06:03;;;;;;;49.38;28.27;;;;;;;;;;5052851;28;25071;-72
2023/09/17 13:08:29;;;;;;;52.13;28.67;;;;;;;;;;5047827;28;25142;-73
2023/09/17 13:10:56;;;;;;;51.03;27.95;;;;;;;;;;5052096;28;25077;-73
2023/09/17 13:13:22;;;;;;;47.17;29.77;;;;;;;;;;5080127;28;25058;-72
2023/09/17 13:15:49;;;;;;;49.15;28.85;;;;;;;;;;5073965;28;25146;-75
2023/09/17 13:18:15;;;;;;;48.50;28.20;;;;;;;;;;5049791;28;25039;-74
2023/09/17 13:20:41;;;;;;;54.25;29.73;;;;;;;;;;5073159;28;25072;-72
2023/09/17 13:23:08;;;;;;;44.72;26.20;;;;;;;;;;5068202;28;25076;-74
2023/09/17 13:25:37;;;;;;;48.28;27.40;;;;;;;;;;5059953;28;25142;-73
2023/09/17 13:28:19;;;;;;;52.17;29.98;;;;;;;;;;5066034;28;25058;-74
2023/09/17 13:30:46;;;;;;;56.75;31.48;;;;;;;;;;5044306;28;25060;-73
2023/09/17 13:33:16;;;;;;;49.45;29.90;;;;;;;;;;5062214;28;25116;-73
2023/09/17 13:35:43;;;;;;;55.28;29.25;;;;;;;;;;5060611;28;25081;-73
2023/09/17 13:38:13;;;;;;;60.70;31.88;;;;;;;;;;5066562;28;25067;-72
2023/09/17 13:40:43;;;;;;;58.45;32.58;;;;;;;;;;5061524;28;25071;-72
2023/09/17 13:43:09;;;;;;;57.88;32.78;;;;;;;;;;5063307;28;25089;-73
2023/09/17 13:45:35;;;;;;;63.53;33.42;;;;;;;;;;5059794;28;25065;-72
2023/09/17 13:48:01;;;;;;;64.82;36.30;;;;;;;;;;5067022;28;25081;-74
2023/09/17 13:50:27;;;;;;;70.85;38.85;;;;;;;;;;5047025;28;25048;-76
2023/09/17 13:52:56;;;;;;;68.05;37.50;;;;;;;;;;5050324;28;25064;-72
2023/09/17 13:55:22;;;;;;;63.45;36.63;;;;;;;;;;5042819;28;25046;-74
2023/09/17 13:57:50;;;;;;;71.40;37.60;;;;;;;;;;5046109;28;25097;-76
2023/09/17 14:00:16;;;;;;;75.40;39.85;;;;;;;;;;5050395;28;25056;-76
2023/09/17 14:02:42;;;;;;;72.90;39.97;;;;;;;;;;5068371;28;25050;-75
2023/09/17 14:05:08;;;;;;;71.32;39.08;;;;;;;;;;5062821;28;25070;-77
2023/09/17 14:07:34;;;;;;;68.10;39.22;;;;;;;;;;5064632;28;25074;-76
2023/09/17 14:10:00;;;;;;;75.78;40.85;;;;;;;;;;5067410;28;25073;-76
2023/09/17 14:12:26;;;;;;;74.75;41.47;;;;;;;;;;5050334;28;25072;-75
2023/09/17 14:14:52;;;;;;;80.05;43.78;;;;;;;;;;5062526;28;25045;-77